sensor_id;sensor_type;location;lat;lon;timestamp;P1;durP1;ratioP1;P2;durP2;ratioP2
64295;SDS011;51082;38.236;15.432;2022-07-29T00:00:57;1.83;;;1.40;;
64295;SDS011;51082;38.236;15.432;2022-07-29T00:02:00;1.83;;;1.50;;
64295;SDS011;51082;38.236;15.432;2022-07-29T00:03:03;2.28;;;1.92;;
64295;SDS011;51082;38.236;15.432;2022-07-29T00:04:04;2.92;;;1.30;;
64295;SDS011;51082;38.236;15.432;2022-07-29T00:05:07;2.35;;;1.65;;
64295;SDS011;51082;38.236;15.432;2022-07-29T00:06:09;3.35;;;1.60;;
64295;SDS011;51082;38.236;15.432;2022-07-29T00:07:12;2.15;;;1.38;;
64295;SDS011;51082;38.236;15.432;2022-07-29T00:08:14;2.75;;;1.70;;
64295;SDS011;51082;38.236;15.432;2022-07-29T00:09:18;1.38;;;1.27;;
64295;SDS011;51082;38.236;15.432;2022-07-29T00:10:20;1.92;;;1.45;;
64295;SDS011;51082;38.236;15.432;2022-07-29T00:11:22;1.52;;;1.20;;
64295;SDS011;51082;38.236;15.432;2022-07-29T00:12:25;2.13;;;1.40;;
64295;SDS011;51082;38.236;15.432;2022-07-29T00:13:27;2.45;;;1.50;;
64295;SDS011;51082;38.236;15.432;2022-07-29T00:14:29;1.25;;;1.15;;
64295;SDS011;51082;38.236;15.432;2022-07-29T00:15:31;1.40;;;1.30;;
64295;SDS011;51082;38.236;15.432;2022-07-29T00:16:34;2.72;;;1.65;;
64295;SDS011;51082;38.236;15.432;2022-07-29T00:17:36;1.27;;;1.17;;
64295;SDS011;51082;38.236;15.432;2022-07-29T00:18:38;1.05;;;0.93;;
64295;SDS011;51082;38.236;15.432;2022-07-29T00:19:40;1.70;;;1.38;;
64295;SDS011;51082;38.236;15.432;2022-07-29T00:20:43;2.17;;;1.77;;
64295;SDS011;51082;38.236;15.432;2022-07-29T00:21:44;2.92;;;1.40;;
64295;SDS011;51082;38.236;15.432;2022-07-29T00:22:47;1.52;;;1.23;;
64295;SDS011;51082;38.236;15.432;2022-07-29T00:23:48;1.85;;;1.40;;
64295;SDS011;51082;38.236;15.432;2022-07-29T00:24:53;3.40;;;1.60;;
64295;SDS011;51082;38.236;15.432;2022-07-29T00:25:54;3.15;;;1.45;;
64295;SDS011;51082;38.236;15.432;2022-07-29T00:26:57;1.63;;;1.52;;
64295;SDS011;51082;38.236;15.432;2022-07-29T00:27:59;1.73;;;1.52;;
64295;SDS011;51082;38.236;15.432;2022-07-29T00:29:02;2.53;;;1.77;;
64295;SDS011;51082;38.236;15.432;2022-07-29T00:30:05;1.90;;;1.60;;
64295;SDS011;51082;38.236;15.432;2022-07-29T00:31:08;3.33;;;2.40;;
64295;SDS011;51082;38.236;15.432;2022-07-29T00:32:10;1.88;;;1.45;;
64295;SDS011;51082;38.236;15.432;2022-07-29T00:33:13;2.22;;;1.55;;
64295;SDS011;51082;38.236;15.432;2022-07-29T00:34:14;1.85;;;1.70;;
64295;SDS011;51082;38.236;15.432;2022-07-29T00:35:31;1.83;;;1.60;;
64295;SDS011;51082;38.236;15.432;2022-07-29T00:36:50;2.55;;;1.80;;
64295;SDS011;51082;38.236;15.432;2022-07-29T00:37:53;1.52;;;1.42;;
64295;SDS011;51082;38.236;15.432;2022-07-29T00:38:54;1.73;;;1.23;;
64295;SDS011;51082;38.236;15.432;2022-07-29T00:39:58;5.25;;;1.77;;
64295;SDS011;51082;38.236;15.432;2022-07-29T00:41:00;3.72;;;1.80;;
64295;SDS011;51082;38.236;15.432;2022-07-29T00:42:03;2.78;;;1.45;;
64295;SDS011;51082;38.236;15.432;2022-07-29T00:43:05;8.73;;;1.85;;
64295;SDS011;51082;38.236;15.432;2022-07-29T00:44:08;4.45;;;1.67;;
64295;SDS011;51082;38.236;15.432;2022-07-29T00:45:09;1.60;;;1.50;;
64295;SDS011;51082;38.236;15.432;2022-07-29T00:46:12;2.25;;;1.98;;
64295;SDS011;51082;38.236;15.432;2022-07-29T00:47:14;2.35;;;1.85;;
64295;SDS011;51082;38.236;15.432;2022-07-29T00:48:17;2.20;;;1.67;;
64295;SDS011;51082;38.236;15.432;2022-07-29T00:49:20;1.83;;;1.67;;
64295;SDS011;51082;38.236;15.432;2022-07-29T00:50:21;1.40;;;1.30;;
64295;SDS011;51082;38.236;15.432;2022-07-29T00:51:25;1.50;;;1.40;;
64295;SDS011;51082;38.236;15.432;2022-07-29T00:52:28;1.40;;;1.25;;
64295;SDS011;51082;38.236;15.432;2022-07-29T00:53:30;1.40;;;1.17;;
64295;SDS011;51082;38.236;15.432;2022-07-29T00:54:34;1.80;;;1.55;;
64295;SDS011;51082;38.236;15.432;2022-07-29T00:55:37;1.85;;;1.52;;
64295;SDS011;51082;38.236;15.432;2022-07-29T00:56:40;1.67;;;1.50;;
64295;SDS011;51082;38.236;15.432;2022-07-29T00:57:42;1.90;;;1.23;;
64295;SDS011;51082;38.236;15.432;2022-07-29T00:58:46;1.70;;;1.20;;
64295;SDS011;51082;38.236;15.432;2022-07-29T00:59:49;3.20;;;1.58;;
64295;SDS011;51082;38.236;15.432;2022-07-29T01:00:51;2.72;;;1.75;;
64295;SDS011;51082;38.236;15.432;2022-07-29T01:01:54;3.42;;;1.63;;
64295;SDS011;51082;38.236;15.432;2022-07-29T01:02:56;1.80;;;1.63;;
64295;SDS011;51082;38.236;15.432;2022-07-29T01:04:00;1.83;;;1.35;;
64295;SDS011;51082;38.236;15.432;2022-07-29T01:05:02;3.13;;;1.85;;
64295;SDS011;51082;38.236;15.432;2022-07-29T01:06:06;1.60;;;1.50;;
64295;SDS011;51082;38.236;15.432;2022-07-29T01:07:08;2.97;;;1.77;;
64295;SDS011;51082;38.236;15.432;2022-07-29T01:08:11;2.08;;;1.88;;
64295;SDS011;51082;38.236;15.432;2022-07-29T01:09:15;1.63;;;1.23;;
64295;SDS011;51082;38.236;15.432;2022-07-29T01:10:20;1.88;;;1.60;;
64295;SDS011;51082;38.236;15.432;2022-07-29T01:11:24;2.72;;;1.85;;
64295;SDS011;51082;38.236;15.432;2022-07-29T01:12:28;2.28;;;1.40;;
64295;SDS011;51082;38.236;15.432;2022-07-29T01:13:33;1.63;;;1.42;;
64295;SDS011;51082;38.236;15.432;2022-07-29T01:14:36;2.53;;;1.55;;
64295;SDS011;51082;38.236;15.432;2022-07-29T01:15:40;2.00;;;1.80;;
64295;SDS011;51082;38.236;15.432;2022-07-29T01:16:48;1.60;;;1.50;;
64295;SDS011;51082;38.236;15.432;2022-07-29T01:17:56;2.03;;;1.75;;
64295;SDS011;51082;38.236;15.432;2022-07-29T01:19:06;2.20;;;1.63;;
64295;SDS011;51082;38.236;15.432;2022-07-29T01:20:15;2.05;;;1.60;;
64295;SDS011;51082;38.236;15.432;2022-07-29T01:22:55;4.80;;;1.25;;
64295;SDS011;51082;38.236;15.432;2022-07-29T01:24:19;2.47;;;1.95;;
64295;SDS011;51082;38.236;15.432;2022-07-29T01:27:13;1.45;;;1.15;;
64295;SDS011;51082;38.236;15.432;2022-07-29T01:30:04;2.58;;;1.40;;
64295;SDS011;51082;38.236;15.432;2022-07-29T01:31:07;4.25;;;1.33;;
64295;SDS011;51082;38.236;15.432;2022-07-29T01:32:12;2.42;;;1.48;;
64295;SDS011;51082;38.236;15.432;2022-07-29T01:33:18;3.53;;;1.40;;
64295;SDS011;51082;38.236;15.432;2022-07-29T01:34:53;1.50;;;1.40;;
64295;SDS011;51082;38.236;15.432;2022-07-29T01:36:00;3.15;;;1.50;;
64295;SDS011;51082;38.236;15.432;2022-07-29T01:37:07;1.92;;;1.52;;
64295;SDS011;51082;38.236;15.432;2022-07-29T01:38:17;1.83;;;1.60;;
64295;SDS011;51082;38.236;15.432;2022-07-29T01:39:24;1.48;;;1.30;;
64295;SDS011;51082;38.236;15.432;2022-07-29T01:40:34;1.73;;;1.52;;
64295;SDS011;51082;38.236;15.432;2022-07-29T01:41:43;1.75;;;1.65;;
64295;SDS011;51082;38.236;15.432;2022-07-29T01:42:52;1.73;;;1.63;;
64295;SDS011;51082;38.236;15.432;2022-07-29T01:43:58;1.50;;;1.40;;
64295;SDS011;51082;38.236;15.432;2022-07-29T01:45:08;1.58;;;1.45;;
64295;SDS011;51082;38.236;15.432;2022-07-29T01:46:17;1.75;;;1.65;;
64295;SDS011;51082;38.236;15.432;2022-07-29T01:47:28;2.28;;;1.42;;
64295;SDS011;51082;38.236;15.432;2022-07-29T01:48:37;2.25;;;1.90;;
64295;SDS011;51082;38.236;15.432;2022-07-29T01:49:46;1.90;;;1.10;;
64295;SDS011;51082;38.236;15.432;2022-07-29T01:50:52;1.60;;;1.50;;
64295;SDS011;51082;38.236;15.432;2022-07-29T01:52:01;3.08;;;1.70;;
64295;SDS011;51082;38.236;15.432;2022-07-29T01:53:08;1.48;;;1.38;;
64295;SDS011;51082;38.236;15.432;2022-07-29T01:54:13;1.35;;;1.20;;
64295;SDS011;51082;38.236;15.432;2022-07-29T01:55:20;1.70;;;1.35;;
64295;SDS011;51082;38.236;15.432;2022-07-29T01:56:27;1.40;;;1.30;;
64295;SDS011;51082;38.236;15.432;2022-07-29T01:57:34;1.20;;;1.10;;
64295;SDS011;51082;38.236;15.432;2022-07-29T01:58:40;2.85;;;1.83;;
64295;SDS011;51082;38.236;15.432;2022-07-29T01:59:45;1.75;;;1.60;;
64295;SDS011;51082;38.236;15.432;2022-07-29T02:00:50;1.70;;;1.40;;
64295;SDS011;51082;38.236;15.432;2022-07-29T02:01:53;2.05;;;1.60;;
64295;SDS011;51082;38.236;15.432;2022-07-29T02:02:59;3.88;;;1.35;;
64295;SDS011;51082;38.236;15.432;2022-07-29T02:04:06;3.40;;;1.83;;
64295;SDS011;51082;38.236;15.432;2022-07-29T02:05:11;3.60;;;2.03;;
64295;SDS011;51082;38.236;15.432;2022-07-29T02:06:17;1.42;;;1.33;;
64295;SDS011;51082;38.236;15.432;2022-07-29T02:07:22;2.10;;;1.45;;
64295;SDS011;51082;38.236;15.432;2022-07-29T02:08:27;1.55;;;1.45;;
64295;SDS011;51082;38.236;15.432;2022-07-29T02:09:30;2.08;;;1.25;;
64295;SDS011;51082;38.236;15.432;2022-07-29T02:10:35;2.50;;;1.42;;
64295;SDS011;51082;38.236;15.432;2022-07-29T02:11:38;1.90;;;1.25;;
64295;SDS011;51082;38.236;15.432;2022-07-29T02:12:42;1.85;;;1.73;;
64295;SDS011;51082;38.236;15.432;2022-07-29T02:13:45;2.13;;;1.65;;
64295;SDS011;51082;38.236;15.432;2022-07-29T02:14:51;2.13;;;1.33;;
64295;SDS011;51082;38.236;15.432;2022-07-29T02:15:56;1.20;;;1.10;;
64295;SDS011;51082;38.236;15.432;2022-07-29T02:17:00;3.60;;;2.17;;
64295;SDS011;51082;38.236;15.432;2022-07-29T02:18:05;2.08;;;1.90;;
64295;SDS011;51082;38.236;15.432;2022-07-29T02:19:09;1.77;;;1.67;;
64295;SDS011;51082;38.236;15.432;2022-07-29T02:20:12;1.42;;;1.17;;
64295;SDS011;51082;38.236;15.432;2022-07-29T02:21:15;2.70;;;1.45;;
64295;SDS011;51082;38.236;15.432;2022-07-29T02:22:24;4.57;;;1.70;;
64295;SDS011;51082;38.236;15.432;2022-07-29T02:23:28;1.55;;;1.35;;
64295;SDS011;51082;38.236;15.432;2022-07-29T02:24:34;1.40;;;1.30;;
64295;SDS011;51082;38.236;15.432;2022-07-29T02:25:38;2.90;;;1.70;;
64295;SDS011;51082;38.236;15.432;2022-07-29T02:26:42;4.30;;;1.83;;
64295;SDS011;51082;38.236;15.432;2022-07-29T02:27:46;3.15;;;1.60;;
64295;SDS011;51082;38.236;15.432;2022-07-29T02:28:50;3.15;;;1.38;;
64295;SDS011;51082;38.236;15.432;2022-07-29T02:29:55;5.97;;;2.05;;
64295;SDS011;51082;38.236;15.432;2022-07-29T02:31:04;1.60;;;1.50;;
64295;SDS011;51082;38.236;15.432;2022-07-29T02:32:07;2.60;;;1.60;;
64295;SDS011;51082;38.236;15.432;2022-07-29T02:33:12;1.48;;;1.23;;
64295;SDS011;51082;38.236;15.432;2022-07-29T02:34:17;2.13;;;1.42;;
64295;SDS011;51082;38.236;15.432;2022-07-29T02:35:21;2.22;;;1.40;;
64295;SDS011;51082;38.236;15.432;2022-07-29T02:36:23;1.55;;;1.40;;
64295;SDS011;51082;38.236;15.432;2022-07-29T02:37:28;4.40;;;1.50;;
64295;SDS011;51082;38.236;15.432;2022-07-29T02:38:31;1.73;;;1.20;;
64295;SDS011;51082;38.236;15.432;2022-07-29T02:39:58;1.20;;;1.10;;
64295;SDS011;51082;38.236;15.432;2022-07-29T02:41:01;2.38;;;1.45;;
64295;SDS011;51082;38.236;15.432;2022-07-29T02:42:08;1.42;;;1.33;;
64295;SDS011;51082;38.236;15.432;2022-07-29T02:43:13;1.67;;;1.40;;
64295;SDS011;51082;38.236;15.432;2022-07-29T02:44:18;2.33;;;1.45;;
64295;SDS011;51082;38.236;15.432;2022-07-29T02:45:26;4.88;;;1.35;;
64295;SDS011;51082;38.236;15.432;2022-07-29T02:46:32;1.67;;;1.52;;
64295;SDS011;51082;38.236;15.432;2022-07-29T02:47:36;2.90;;;1.20;;
64295;SDS011;51082;38.236;15.432;2022-07-29T02:48:44;1.88;;;1.40;;
64295;SDS011;51082;38.236;15.432;2022-07-29T02:49:53;5.90;;;1.42;;
64295;SDS011;51082;38.236;15.432;2022-07-29T02:50:58;2.05;;;1.27;;
64295;SDS011;51082;38.236;15.432;2022-07-29T02:52:06;1.83;;;1.40;;
64295;SDS011;51082;38.236;15.432;2022-07-29T02:53:13;2.38;;;1.30;;
64295;SDS011;51082;38.236;15.432;2022-07-29T02:54:20;1.85;;;1.40;;
64295;SDS011;51082;38.236;15.432;2022-07-29T02:55:29;1.30;;;1.20;;
64295;SDS011;51082;38.236;15.432;2022-07-29T02:56:35;5.72;;;1.10;;
64295;SDS011;51082;38.236;15.432;2022-07-29T02:57:41;1.75;;;1.33;;
64295;SDS011;51082;38.236;15.432;2022-07-29T02:58:47;1.05;;;0.93;;
64295;SDS011;51082;38.236;15.432;2022-07-29T02:59:54;1.33;;;1.23;;
64295;SDS011;51082;38.236;15.432;2022-07-29T03:01:01;1.58;;;1.35;;
64295;SDS011;51082;38.236;15.432;2022-07-29T03:02:05;7.18;;;1.42;;
64295;SDS011;51082;38.236;15.432;2022-07-29T03:03:12;4.22;;;1.65;;
64295;SDS011;51082;38.236;15.432;2022-07-29T03:04:15;2.08;;;1.88;;
64295;SDS011;51082;38.236;15.432;2022-07-29T03:05:21;3.75;;;1.52;;
64295;SDS011;51082;38.236;15.432;2022-07-29T03:06:24;1.42;;;1.33;;
64295;SDS011;51082;38.236;15.432;2022-07-29T03:07:29;1.35;;;1.25;;
64295;SDS011;51082;38.236;15.432;2022-07-29T03:08:32;2.85;;;1.60;;
64295;SDS011;51082;38.236;15.432;2022-07-29T03:09:36;1.70;;;1.33;;
64295;SDS011;51082;38.236;15.432;2022-07-29T03:10:39;1.52;;;0.98;;
64295;SDS011;51082;38.236;15.432;2022-07-29T03:11:45;1.70;;;1.60;;
64295;SDS011;51082;38.236;15.432;2022-07-29T03:12:47;2.22;;;1.63;;
64295;SDS011;51082;38.236;15.432;2022-07-29T03:13:49;1.45;;;1.35;;
64295;SDS011;51082;38.236;15.432;2022-07-29T03:14:51;1.55;;;1.10;;
64295;SDS011;51082;38.236;15.432;2022-07-29T03:15:55;1.38;;;1.27;;
64295;SDS011;51082;38.236;15.432;2022-07-29T03:16:58;1.33;;;1.23;;
64295;SDS011;51082;38.236;15.432;2022-07-29T03:18:02;2.25;;;1.52;;
64295;SDS011;51082;38.236;15.432;2022-07-29T03:19:06;3.03;;;1.23;;
64295;SDS011;51082;38.236;15.432;2022-07-29T03:20:09;1.10;;;1.00;;
64295;SDS011;51082;38.236;15.432;2022-07-29T03:21:13;1.40;;;1.30;;
64295;SDS011;51082;38.236;15.432;2022-07-29T03:22:15;1.17;;;1.08;;
64295;SDS011;51082;38.236;15.432;2022-07-29T03:23:18;1.25;;;1.15;;
64295;SDS011;51082;38.236;15.432;2022-07-29T03:24:27;1.30;;;1.13;;
64295;SDS011;51082;38.236;15.432;2022-07-29T03:25:31;2.08;;;1.15;;
64295;SDS011;51082;38.236;15.432;2022-07-29T03:26:34;1.58;;;1.40;;
64295;SDS011;51082;38.236;15.432;2022-07-29T03:27:36;2.92;;;1.48;;
64295;SDS011;51082;38.236;15.432;2022-07-29T03:28:38;1.88;;;1.40;;
64295;SDS011;51082;38.236;15.432;2022-07-29T03:29:40;2.30;;;1.73;;
64295;SDS011;51082;38.236;15.432;2022-07-29T03:30:43;1.55;;;1.30;;
64295;SDS011;51082;38.236;15.432;2022-07-29T03:31:44;1.40;;;1.17;;
64295;SDS011;51082;38.236;15.432;2022-07-29T03:32:48;2.30;;;1.50;;
64295;SDS011;51082;38.236;15.432;2022-07-29T03:33:52;1.55;;;1.05;;
64295;SDS011;51082;38.236;15.432;2022-07-29T03:34:54;1.83;;;1.15;;
64295;SDS011;51082;38.236;15.432;2022-07-29T03:35:56;4.53;;;1.50;;
64295;SDS011;51082;38.236;15.432;2022-07-29T03:36:58;1.33;;;1.20;;
64295;SDS011;51082;38.236;15.432;2022-07-29T03:38:01;1.80;;;1.27;;
64295;SDS011;51082;38.236;15.432;2022-07-29T03:39:03;1.83;;;1.73;;
64295;SDS011;51082;38.236;15.432;2022-07-29T03:40:07;1.48;;;1.38;;
64295;SDS011;51082;38.236;15.432;2022-07-29T03:41:13;3.40;;;1.90;;
64295;SDS011;51082;38.236;15.432;2022-07-29T03:42:15;2.47;;;1.65;;
64295;SDS011;51082;38.236;15.432;2022-07-29T03:43:21;3.65;;;2.08;;
64295;SDS011;51082;38.236;15.432;2022-07-29T03:44:25;10.60;;;3.97;;
64295;SDS011;51082;38.236;15.432;2022-07-29T03:45:30;11.68;;;3.75;;
64295;SDS011;51082;38.236;15.432;2022-07-29T03:46:32;10.70;;;3.67;;
64295;SDS011;51082;38.236;15.432;2022-07-29T03:47:37;4.32;;;2.65;;
64295;SDS011;51082;38.236;15.432;2022-07-29T03:48:46;4.43;;;1.65;;
64295;SDS011;51082;38.236;15.432;2022-07-29T03:49:52;1.95;;;1.70;;
64295;SDS011;51082;38.236;15.432;2022-07-29T03:50:57;1.90;;;1.80;;
64295;SDS011;51082;38.236;15.432;2022-07-29T03:52:00;1.85;;;1.65;;
64295;SDS011;51082;38.236;15.432;2022-07-29T03:53:02;2.35;;;1.38;;
64295;SDS011;51082;38.236;15.432;2022-07-29T03:54:05;2.88;;;1.63;;
64295;SDS011;51082;38.236;15.432;2022-07-29T03:55:07;2.55;;;2.00;;
64295;SDS011;51082;38.236;15.432;2022-07-29T03:56:11;6.55;;;2.25;;
64295;SDS011;51082;38.236;15.432;2022-07-29T03:57:17;4.93;;;3.35;;
64295;SDS011;51082;38.236;15.432;2022-07-29T03:58:22;3.65;;;2.75;;
64295;SDS011;51082;38.236;15.432;2022-07-29T03:59:24;5.40;;;3.03;;
64295;SDS011;51082;38.236;15.432;2022-07-29T04:00:29;5.10;;;3.10;;
64295;SDS011;51082;38.236;15.432;2022-07-29T04:01:32;3.13;;;2.78;;
64295;SDS011;51082;38.236;15.432;2022-07-29T04:02:36;3.28;;;2.97;;
64295;SDS011;51082;38.236;15.432;2022-07-29T04:03:39;4.40;;;3.30;;
64295;SDS011;51082;38.236;15.432;2022-07-29T04:04:42;5.03;;;3.42;;
64295;SDS011;51082;38.236;15.432;2022-07-29T04:05:46;5.30;;;3.35;;
64295;SDS011;51082;38.236;15.432;2022-07-29T04:07:00;4.80;;;3.67;;
64295;SDS011;51082;38.236;15.432;2022-07-29T04:08:02;5.65;;;3.75;;
64295;SDS011;51082;38.236;15.432;2022-07-29T04:09:04;6.78;;;3.40;;
64295;SDS011;51082;38.236;15.432;2022-07-29T04:10:06;5.00;;;3.67;;
64295;SDS011;51082;38.236;15.432;2022-07-29T04:11:09;7.13;;;3.30;;
64295;SDS011;51082;38.236;15.432;2022-07-29T04:12:11;4.93;;;3.60;;
64295;SDS011;51082;38.236;15.432;2022-07-29T04:13:14;5.93;;;3.63;;
64295;SDS011;51082;38.236;15.432;2022-07-29T04:14:15;10.35;;;3.38;;
64295;SDS011;51082;38.236;15.432;2022-07-29T04:15:18;4.07;;;2.67;;
64295;SDS011;51082;38.236;15.432;2022-07-29T04:16:20;5.10;;;3.65;;
64295;SDS011;51082;38.236;15.432;2022-07-29T04:17:22;3.65;;;3.22;;
64295;SDS011;51082;38.236;15.432;2022-07-29T04:18:24;5.15;;;2.72;;
64295;SDS011;51082;38.236;15.432;2022-07-29T04:19:27;4.18;;;2.95;;
64295;SDS011;51082;38.236;15.432;2022-07-29T04:20:29;3.80;;;2.75;;
64295;SDS011;51082;38.236;15.432;2022-07-29T04:21:37;5.15;;;3.08;;
64295;SDS011;51082;38.236;15.432;2022-07-29T04:22:39;2.65;;;2.05;;
64295;SDS011;51082;38.236;15.432;2022-07-29T04:23:42;2.03;;;1.83;;
64295;SDS011;51082;38.236;15.432;2022-07-29T04:24:45;4.75;;;3.30;;
64295;SDS011;51082;38.236;15.432;2022-07-29T04:25:48;4.00;;;2.40;;
64295;SDS011;51082;38.236;15.432;2022-07-29T04:26:50;2.95;;;2.13;;
64295;SDS011;51082;38.236;15.432;2022-07-29T04:27:52;3.13;;;2.20;;
64295;SDS011;51082;38.236;15.432;2022-07-29T04:29:03;3.28;;;2.15;;
64295;SDS011;51082;38.236;15.432;2022-07-29T04:30:06;5.13;;;2.88;;
64295;SDS011;51082;38.236;15.432;2022-07-29T04:31:08;5.50;;;2.60;;
64295;SDS011;51082;38.236;15.432;2022-07-29T04:32:11;7.32;;;2.63;;
64295;SDS011;51082;38.236;15.432;2022-07-29T04:33:12;4.85;;;2.00;;
64295;SDS011;51082;38.236;15.432;2022-07-29T04:34:15;3.60;;;2.47;;
64295;SDS011;51082;38.236;15.432;2022-07-29T04:35:17;3.17;;;2.45;;
64295;SDS011;51082;38.236;15.432;2022-07-29T04:36:20;6.05;;;1.90;;
64295;SDS011;51082;38.236;15.432;2022-07-29T04:37:23;2.67;;;1.80;;
64295;SDS011;51082;38.236;15.432;2022-07-29T04:38:26;6.40;;;2.47;;
64295;SDS011;51082;38.236;15.432;2022-07-29T04:39:27;11.13;;;2.47;;
64295;SDS011;51082;38.236;15.432;2022-07-29T04:40:30;4.93;;;2.40;;
64295;SDS011;51082;38.236;15.432;2022-07-29T04:41:33;3.13;;;2.40;;
64295;SDS011;51082;38.236;15.432;2022-07-29T04:42:36;4.22;;;2.80;;
64295;SDS011;51082;38.236;15.432;2022-07-29T04:43:38;6.10;;;2.78;;
64295;SDS011;51082;38.236;15.432;2022-07-29T04:44:40;5.50;;;2.92;;
64295;SDS011;51082;38.236;15.432;2022-07-29T04:45:43;4.85;;;3.03;;
64295;SDS011;51082;38.236;15.432;2022-07-29T04:46:44;4.80;;;2.47;;
64295;SDS011;51082;38.236;15.432;2022-07-29T04:47:47;4.32;;;3.00;;
64295;SDS011;51082;38.236;15.432;2022-07-29T04:48:49;7.25;;;2.35;;
64295;SDS011;51082;38.236;15.432;2022-07-29T04:49:52;6.60;;;2.60;;
64295;SDS011;51082;38.236;15.432;2022-07-29T04:50:53;3.92;;;2.63;;
64295;SDS011;51082;38.236;15.432;2022-07-29T04:51:56;3.92;;;2.80;;
64295;SDS011;51082;38.236;15.432;2022-07-29T04:53:00;6.82;;;3.20;;
64295;SDS011;51082;38.236;15.432;2022-07-29T04:54:02;7.03;;;3.35;;
64295;SDS011;51082;38.236;15.432;2022-07-29T04:55:05;4.05;;;3.03;;
64295;SDS011;51082;38.236;15.432;2022-07-29T04:56:08;5.50;;;2.38;;
64295;SDS011;51082;38.236;15.432;2022-07-29T04:57:09;7.50;;;2.78;;
64295;SDS011;51082;38.236;15.432;2022-07-29T04:58:12;6.55;;;2.35;;
64295;SDS011;51082;38.236;15.432;2022-07-29T04:59:14;2.67;;;2.22;;
64295;SDS011;51082;38.236;15.432;2022-07-29T05:00:16;3.22;;;2.33;;
64295;SDS011;51082;38.236;15.432;2022-07-29T05:01:18;4.93;;;2.25;;
64295;SDS011;51082;38.236;15.432;2022-07-29T05:02:21;4.93;;;2.58;;
64295;SDS011;51082;38.236;15.432;2022-07-29T05:03:23;6.55;;;2.67;;
64295;SDS011;51082;38.236;15.432;2022-07-29T05:04:26;5.25;;;3.20;;
64295;SDS011;51082;38.236;15.432;2022-07-29T05:05:27;8.07;;;2.80;;
64295;SDS011;51082;38.236;15.432;2022-07-29T05:06:30;2.75;;;2.13;;
64295;SDS011;51082;38.236;15.432;2022-07-29T05:07:32;2.78;;;1.85;;
64295;SDS011;51082;38.236;15.432;2022-07-29T05:08:36;3.50;;;2.30;;
64295;SDS011;51082;38.236;15.432;2022-07-29T05:09:37;3.33;;;2.03;;
64295;SDS011;51082;38.236;15.432;2022-07-29T05:10:40;3.42;;;2.35;;
64295;SDS011;51082;38.236;15.432;2022-07-29T05:11:43;8.88;;;3.08;;
64295;SDS011;51082;38.236;15.432;2022-07-29T05:12:46;5.65;;;2.00;;
64295;SDS011;51082;38.236;15.432;2022-07-29T05:13:47;4.75;;;3.13;;
64295;SDS011;51082;38.236;15.432;2022-07-29T05:14:50;2.45;;;1.70;;
64295;SDS011;51082;38.236;15.432;2022-07-29T05:15:52;2.03;;;1.83;;
64295;SDS011;51082;38.236;15.432;2022-07-29T05:16:55;4.85;;;2.38;;
64295;SDS011;51082;38.236;15.432;2022-07-29T05:17:57;2.50;;;1.83;;
64295;SDS011;51082;38.236;15.432;2022-07-29T05:19:00;2.35;;;2.15;;
64295;SDS011;51082;38.236;15.432;2022-07-29T05:20:02;5.43;;;2.67;;
64295;SDS011;51082;38.236;15.432;2022-07-29T05:21:05;2.28;;;1.77;;
64295;SDS011;51082;38.236;15.432;2022-07-29T05:22:07;2.92;;;2.38;;
64295;SDS011;51082;38.236;15.432;2022-07-29T05:23:10;6.25;;;2.13;;
64295;SDS011;51082;38.236;15.432;2022-07-29T05:24:14;8.63;;;2.50;;
64295;SDS011;51082;38.236;15.432;2022-07-29T05:25:16;5.95;;;1.95;;
64295;SDS011;51082;38.236;15.432;2022-07-29T05:26:19;2.92;;;2.03;;
64295;SDS011;51082;38.236;15.432;2022-07-29T05:27:21;3.47;;;1.90;;
64295;SDS011;51082;38.236;15.432;2022-07-29T05:28:24;3.08;;;2.45;;
64295;SDS011;51082;38.236;15.432;2022-07-29T05:29:25;2.17;;;1.70;;
64295;SDS011;51082;38.236;15.432;2022-07-29T05:30:28;3.35;;;2.10;;
64295;SDS011;51082;38.236;15.432;2022-07-29T05:31:29;1.88;;;1.60;;
64295;SDS011;51082;38.236;15.432;2022-07-29T05:32:32;3.75;;;1.85;;
64295;SDS011;51082;38.236;15.432;2022-07-29T05:33:34;2.50;;;1.48;;
64295;SDS011;51082;38.236;15.432;2022-07-29T05:34:36;4.47;;;1.83;;
64295;SDS011;51082;38.236;15.432;2022-07-29T05:35:38;2.13;;;1.92;;
64295;SDS011;51082;38.236;15.432;2022-07-29T05:36:40;1.73;;;1.52;;
64295;SDS011;51082;38.236;15.432;2022-07-29T05:37:42;4.28;;;2.10;;
64295;SDS011;51082;38.236;15.432;2022-07-29T05:38:45;2.83;;;1.58;;
64295;SDS011;51082;38.236;15.432;2022-07-29T05:39:48;1.63;;;1.45;;
64295;SDS011;51082;38.236;15.432;2022-07-29T05:40:50;3.70;;;1.80;;
64295;SDS011;51082;38.236;15.432;2022-07-29T05:41:52;2.03;;;1.45;;
64295;SDS011;51082;38.236;15.432;2022-07-29T05:42:55;2.22;;;1.30;;
64295;SDS011;51082;38.236;15.432;2022-07-29T05:43:57;1.60;;;1.50;;
64295;SDS011;51082;38.236;15.432;2022-07-29T05:45:00;1.90;;;1.67;;
64295;SDS011;51082;38.236;15.432;2022-07-29T05:46:01;2.30;;;1.50;;
64295;SDS011;51082;38.236;15.432;2022-07-29T05:47:04;1.80;;;1.70;;
64295;SDS011;51082;38.236;15.432;2022-07-29T05:48:07;3.30;;;1.80;;
64295;SDS011;51082;38.236;15.432;2022-07-29T05:49:09;1.48;;;1.38;;
64295;SDS011;51082;38.236;15.432;2022-07-29T05:50:11;1.80;;;1.58;;
64295;SDS011;51082;38.236;15.432;2022-07-29T05:51:14;2.00;;;1.80;;
64295;SDS011;51082;38.236;15.432;2022-07-29T05:52:15;1.38;;;1.20;;
64295;SDS011;51082;38.236;15.432;2022-07-29T05:53:18;2.58;;;1.90;;
64295;SDS011;51082;38.236;15.432;2022-07-29T05:54:20;2.10;;;1.67;;
64295;SDS011;51082;38.236;15.432;2022-07-29T05:55:24;2.10;;;1.90;;
64295;SDS011;51082;38.236;15.432;2022-07-29T05:56:27;1.90;;;1.77;;
64295;SDS011;51082;38.236;15.432;2022-07-29T05:57:29;2.80;;;1.60;;
64295;SDS011;51082;38.236;15.432;2022-07-29T05:58:31;1.30;;;1.20;;
64295;SDS011;51082;38.236;15.432;2022-07-29T05:59:35;2.88;;;1.52;;
64295;SDS011;51082;38.236;15.432;2022-07-29T06:00:38;2.08;;;1.50;;
64295;SDS011;51082;38.236;15.432;2022-07-29T06:01:40;3.05;;;1.70;;
64295;SDS011;51082;38.236;15.432;2022-07-29T06:02:43;5.22;;;1.42;;
64295;SDS011;51082;38.236;15.432;2022-07-29T06:03:44;3.45;;;1.92;;
64295;SDS011;51082;38.236;15.432;2022-07-29T06:04:47;2.47;;;1.60;;
64295;SDS011;51082;38.236;15.432;2022-07-29T06:05:50;3.45;;;1.95;;
64295;SDS011;51082;38.236;15.432;2022-07-29T06:06:52;2.25;;;1.48;;
64295;SDS011;51082;38.236;15.432;2022-07-29T06:07:54;5.13;;;1.80;;
64295;SDS011;51082;38.236;15.432;2022-07-29T06:08:57;2.67;;;1.60;;
64295;SDS011;51082;38.236;15.432;2022-07-29T06:09:58;3.80;;;1.88;;
64295;SDS011;51082;38.236;15.432;2022-07-29T06:11:03;3.33;;;1.83;;
64295;SDS011;51082;38.236;15.432;2022-07-29T06:12:05;1.80;;;1.70;;
64295;SDS011;51082;38.236;15.432;2022-07-29T06:13:08;2.22;;;1.25;;
64295;SDS011;51082;38.236;15.432;2022-07-29T06:14:09;1.67;;;1.55;;
64295;SDS011;51082;38.236;15.432;2022-07-29T06:15:12;1.58;;;1.35;;
64295;SDS011;51082;38.236;15.432;2022-07-29T06:16:13;3.13;;;2.40;;
64295;SDS011;51082;38.236;15.432;2022-07-29T06:17:16;2.10;;;1.42;;
64295;SDS011;51082;38.236;15.432;2022-07-29T06:18:18;1.50;;;1.40;;
64295;SDS011;51082;38.236;15.432;2022-07-29T06:19:21;3.45;;;1.70;;
64295;SDS011;51082;38.236;15.432;2022-07-29T06:20:23;2.88;;;1.65;;
64295;SDS011;51082;38.236;15.432;2022-07-29T06:21:25;2.10;;;1.65;;
64295;SDS011;51082;38.236;15.432;2022-07-29T06:22:27;1.50;;;1.27;;
64295;SDS011;51082;38.236;15.432;2022-07-29T06:23:30;2.53;;;1.70;;
64295;SDS011;51082;38.236;15.432;2022-07-29T06:24:32;3.08;;;1.58;;